Time;durP1;ratioP1;P1;durP2;ratioP2;P2;SDS_P1;SDS_P2;PMS_P1;PMS_P2;Temp;Humidity;BMP_temperature;BMP_pressure;BME280_temperature;BME280_humidity;BME280_pressure;Samples;Min_cycle;Max_cycle;Signal;HPM_P1;HPM_P2
2023/12/22 00:01:53;;;;;;;0.07;0.07;;;8.90;99.90;;;;;;5043621;28;20230;-64
2023/12/22 00:04:20;;;;;;;0.00;0.00;;;8.80;99.90;;;;;;5042739;28;20192;-66
2023/12/22 00:06:48;;;;;;;1.40;0.20;;;8.90;99.90;;;;;;5037175;28;20271;-64
2023/12/22 00:09:15;;;;;;;0.10;0.10;;;8.80;99.90;;;;;;5042741;28;20208;-64
2023/12/22 00:11:44;;;;;;;0.67;0.10;;;8.80;99.90;;;;;;5036667;28;20200;-63
2023/12/22 00:14:11;;;;;;;0.10;0.07;;;8.80;99.90;;;;;;5034861;28;20199;-64
2023/12/22 00:16:38;;;;;;;0.40;0.00;;;8.80;99.90;;;;;;5033396;28;20224;-63
2023/12/22 00:19:05;;;;;;;0.10;0.10;;;8.90;99.90;;;;;;5030592;28;20295;-63
2023/12/22 00:21:32;;;;;;;0.10;0.10;;;8.90;99.90;;;;;;5031301;28;20676;-63
2023/12/22 00:23:59;;;;;;;0.17;0.10;;;8.90;99.90;;;;;;5029666;28;20291;-62
2023/12/22 00:26:26;;;;;;;0.30;0.10;;;9.00;99.90;;;;;;5028429;28;20228;-63
2023/12/22 00:28:55;;;;;;;0.30;0.20;;;9.00;99.90;;;;;;5036311;28;20224;-63
2023/12/22 00:31:21;;;;;;;0.30;0.23;;;9.10;99.90;;;;;;5039093;28;20200;-63
2023/12/22 00:33:49;;;;;;;0.10;0.10;;;9.10;99.90;;;;;;5037106;28;20201;-63
2023/12/22 00:36:17;;;;;;;0.10;0.10;;;9.10;99.90;;;;;;5028032;28;20251;-63
2023/12/22 00:38:44;;;;;;;1.47;0.20;;;9.10;99.90;;;;;;5027911;28;20628;-63
2023/12/22 00:41:11;;;;;;;0.10;0.10;;;9.10;99.90;;;;;;5030765;28;20201;-63
2023/12/22 00:43:38;;;;;;;0.43;0.10;;;9.10;99.90;;;;;;5029198;28;20259;-63
2023/12/22 00:46:07;;;;;;;0.20;0.20;;;9.00;99.90;;;;;;5030475;28;20207;-63
2023/12/22 00:48:34;;;;;;;0.10;0.10;;;9.10;99.90;;;;;;5030607;28;20789;-63
2023/12/22 00:51:01;;;;;;;0.50;0.20;;;9.10;99.90;;;;;;5040311;28;20266;-63
2023/12/22 00:53:28;;;;;;;0.50;0.10;;;9.10;99.90;;;;;;5040357;28;20203;-63
2023/12/22 00:55:55;;;;;;;0.17;0.17;;;9.20;99.90;;;;;;5036190;28;20199;-63
2023/12/22 00:58:22;;;;;;;1.03;0.20;;;9.20;99.90;;;;;;5038590;28;20225;-63
2023/12/22 01:00:49;;;;;;;1.50;0.17;;;9.20;99.90;;;;;;5031628;28;20201;-63
2023/12/22 01:03:17;;;;;;;1.00;0.10;;;9.20;99.90;;;;;;5030187;28;20261;-63
2023/12/22 01:05:44;;;;;;;2.67;0.20;;;9.20;99.90;;;;;;5032048;28;20810;-64
2023/12/22 01:08:11;;;;;;;0.20;0.10;;;9.20;99.90;;;;;;5029022;28;20285;-63
2023/12/22 01:10:38;;;;;;;1.37;0.10;;;9.10;99.90;;;;;;5030951;28;20204;-63
2023/12/22 01:13:05;;;;;;;0.50;0.00;;;9.00;99.90;;;;;;5039871;28;20200;-63
2023/12/22 01:15:32;;;;;;;0.00;0.00;;;8.90;99.90;;;;;;5044591;28;20266;-63
2023/12/22 01:17:59;;;;;;;0.40;0.00;;;8.90;99.90;;;;;;5042527;28;20257;-63
2023/12/22 01:20:27;;;;;;;0.10;0.10;;;8.80;99.90;;;;;;5033656;28;20250;-63
2023/12/22 01:22:54;;;;;;;0.83;0.10;;;8.70;99.90;;;;;;5043093;28;20196;-63
2023/12/22 01:25:21;;;;;;;0.53;0.07;;;8.70;99.90;;;;;;5040924;28;20209;-63
2023/12/22 01:27:50;;;;;;;1.90;0.20;;;8.60;99.90;;;;;;5030383;28;20239;-63
2023/12/22 01:30:17;;;;;;;2.73;0.10;;;8.60;99.90;;;;;;5026488;28;20291;-63
2023/12/22 01:32:44;;;;;;;1.10;0.17;;;8.50;99.90;;;;;;5037441;28;20195;-63
2023/12/22 01:35:11;;;;;;;3.03;0.10;;;8.60;99.90;;;;;;5033842;28;20251;-63
2023/12/22 01:37:39;;;;;;;2.63;0.47;;;8.40;99.90;;;;;;5042304;28;20591;-66
2023/12/22 01:40:08;;;;;;;0.10;0.10;;;8.40;99.90;;;;;;5036015;28;20209;-66
2023/12/22 01:42:34;;;;;;;0.67;0.17;;;8.30;99.90;;;;;;5029185;28;20829;-63
2023/12/22 01:45:02;;;;;;;3.57;0.40;;;8.20;99.90;;;;;;5038594;28;20199;-63
2023/12/22 01:47:29;;;;;;;1.63;0.20;;;8.10;99.90;;;;;;5041786;28;20581;-63
2023/12/22 01:49:56;;;;;;;2.20;0.10;;;8.10;99.90;;;;;;5035121;28;20208;-63
2023/12/22 01:52:23;;;;;;;1.50;0.10;;;8.10;99.90;;;;;;5040440;28;20205;-64
2023/12/22 01:54:54;;;;;;;0.20;0.17;;;8.00;99.90;;;;;;5037236;28;20210;-63
2023/12/22 01:57:22;;;;;;;2.23;0.10;;;7.90;99.90;;;;;;5041714;28;20625;-65
2023/12/22 01:59:50;;;;;;;0.50;0.10;;;7.90;99.90;;;;;;5030165;28;20272;-63
2023/12/22 02:02:17;;;;;;;0.50;0.10;;;7.90;99.90;;;;;;5042274;28;20668;-63
2023/12/22 02:04:46;;;;;;;0.30;0.10;;;7.90;99.90;;;;;;5037693;28;20591;-63
2023/12/22 02:07:13;;;;;;;1.07;0.20;;;7.90;99.90;;;;;;5039134;28;20236;-63
2023/12/22 02:09:40;;;;;;;0.10;0.00;;;7.90;99.90;;;;;;5041821;28;20277;-63
2023/12/22 02:12:09;;;;;;;0.30;0.10;;;7.90;99.90;;;;;;5036710;28;20259;-63
2023/12/22 02:14:36;;;;;;;0.20;0.20;;;8.00;99.90;;;;;;5033675;28;20278;-63
2023/12/22 02:17:12;;;;;;;0.10;0.10;;;8.00;99.90;;;;;;5034194;28;20224;-63
2023/12/22 02:19:43;;;;;;;0.10;0.10;;;8.00;99.90;;;;;;5026977;28;20249;-63
2023/12/22 02:22:11;;;;;;;1.03;0.13;;;7.90;99.90;;;;;;5034809;28;20236;-63
2023/12/22 02:24:40;;;;;;;0.10;0.10;;;7.90;99.90;;;;;;5041290;28;21383;-63
2023/12/22 02:27:13;;;;;;;0.00;0.00;;;7.90;99.90;;;;;;5045554;28;20714;-63
2023/12/22 02:29:44;;;;;;;1.90;0.10;;;7.80;99.90;;;;;;5031944;28;20224;-63
2023/12/22 02:32:23;;;;;;;0.80;0.10;;;7.80;99.90;;;;;;5048651;28;20204;-63
2023/12/22 02:34:53;;;;;;;0.43;0.10;;;7.80;99.90;;;;;;5039463;28;20277;-63
2023/12/22 02:37:22;;;;;;;0.93;0.30;;;7.90;99.90;;;;;;5044229;28;20704;-65
2023/12/22 02:39:52;;;;;;;4.43;0.20;;;7.80;99.90;;;;;;5043186;28;20221;-63
2023/12/22 02:42:23;;;;;;;0.20;0.20;;;7.80;99.90;;;;;;5042317;28;20257;-64
2023/12/22 02:44:50;;;;;;;1.60;0.30;;;7.70;99.90;;;;;;5050123;28;20210;-63
2023/12/22 02:47:17;;;;;;;0.20;0.20;;;7.70;99.90;;;;;;5043073;28;20289;-63
2023/12/22 02:49:44;;;;;;;1.73;0.30;;;7.80;99.90;;;;;;5050684;28;20227;-64
2023/12/22 02:52:11;;;;;;;0.20;0.20;;;7.80;99.90;;;;;;5037947;28;20204;-63
2023/12/22 02:54:39;;;;;;;8.60;0.20;;;7.80;99.90;;;;;;5033896;28;20218;-63
2023/12/22 02:57:08;;;;;;;1.10;0.50;;;7.80;99.90;;;;;;5047616;28;20227;-63
2023/12/22 02:59:35;;;;;;;2.10;0.30;;;7.90;99.90;;;;;;5036848;28;20291;-63
2023/12/22 03:02:02;;;;;;;2.43;0.10;;;7.90;99.90;;;;;;5044662;28;20755;-63
2023/12/22 03:04:29;;;;;;;1.53;0.10;;;7.90;99.90;;;;;;5042713;28;20204;-63
2023/12/22 03:06:56;;;;;;;1.47;0.53;;;8.00;99.90;;;;;;5041549;28;20653;-63
2023/12/22 03:09:23;;;;;;;2.67;0.30;;;8.10;99.90;;;;;;5042487;28;20286;-64
2023/12/22 03:11:54;;;;;;;0.37;0.30;;;8.10;99.90;;;;;;5038614;28;20230;-63
2023/12/22 03:14:23;;;;;;;4.53;0.30;;;8.10;99.90;;;;;;5036205;28;20304;-63
2023/12/22 03:16:53;;;;;;;0.43;0.40;;;8.10;99.90;;;;;;5038694;28;20219;-63
2023/12/22 03:19:20;;;;;;;1.97;0.77;;;8.10;99.90;;;;;;5043505;28;20196;-63
2023/12/22 03:21:47;;;;;;;0.77;0.30;;;8.10;99.90;;;;;;5032700;28;20278;-63
2023/12/22 03:24:13;;;;;;;3.20;0.93;;;8.20;99.90;;;;;;5042376;28;20249;-63
2023/12/22 03:26:40;;;;;;;3.70;0.40;;;8.20;99.90;;;;;;5040428;28;20228;-63
2023/12/22 03:29:07;;;;;;;0.70;0.23;;;8.20;99.90;;;;;;5041497;28;20220;-64
2023/12/22 03:31:36;;;;;;;0.30;0.20;;;8.20;99.90;;;;;;5051693;28;20200;-63
2023/12/22 03:34:03;;;;;;;1.60;0.10;;;8.20;99.90;;;;;;5045180;28;20226;-63
2023/12/22 03:36:30;;;;;;;0.97;0.10;;;8.30;99.90;;;;;;5047929;28;20251;-63
2023/12/22 03:38:56;;;;;;;2.37;0.20;;;8.20;99.90;;;;;;5037473;28;20201;-63
2023/12/22 03:41:23;;;;;;;0.80;0.10;;;8.30;99.90;;;;;;5033124;28;20668;-63
2023/12/22 03:43:50;;;;;;;0.43;0.20;;;8.30;99.90;;;;;;5034692;28;20243;-63
2023/12/22 03:46:18;;;;;;;0.20;0.20;;;8.30;99.90;;;;;;5050837;28;20199;-63
2023/12/22 03:48:46;;;;;;;1.90;0.10;;;8.20;99.90;;;;;;5053120;28;20259;-63
2023/12/22 03:51:14;;;;;;;0.20;0.10;;;8.20;99.90;;;;;;5047977;28;20266;-63
2023/12/22 03:53:41;;;;;;;0.20;0.17;;;8.20;99.90;;;;;;5040916;28;20203;-63
2023/12/22 03:56:08;;;;;;;0.10;0.10;;;8.20;99.90;;;;;;5033795;28;20203;-63
2023/12/22 03:58:35;;;;;;;1.23;0.10;;;8.20;99.90;;;;;;5033102;28;20248;-64
2023/12/22 04:01:02;;;;;;;0.27;0.00;;;8.20;99.90;;;;;;5032838;28;22237;-63
2023/12/22 04:03:29;;;;;;;0.57;0.20;;;8.20;99.90;;;;;;5041197;28;20262;-63
2023/12/22 04:05:58;;;;;;;0.93;0.20;;;8.20;99.90;;;;;;5047338;28;20250;-63
2023/12/22 04:08:25;;;;;;;0.10;0.10;;;8.20;99.90;;;;;;5034651;28;20219;-63
2023/12/22 04:10:51;;;;;;;0.20;0.10;;;8.20;99.90;;;;;;5034256;28;20702;-63
2023/12/22 04:13:18;;;;;;;0.03;0.00;;;8.20;99.90;;;;;;5041569;28;20200;-63
2023/12/22 04:15:45;;;;;;;0.10;0.00;;;8.20;99.90;;;;;;5034475;28;20204;-63
2023/12/22 04:18:12;;;;;;;1.20;0.10;;;8.20;99.90;;;;;;5034100;28;20221;-63
2023/12/22 04:20:39;;;;;;;0.13;0.13;;;8.20;99.90;;;;;;5051964;28;20253;-63
2023/12/22 04:23:07;;;;;;;0.10;0.10;;;8.20;99.90;;;;;;5042136;28;20733;-63
2023/12/22 04:25:34;;;;;;;0.17;0.00;;;8.10;99.90;;;;;;5054283;28;20196;-66
2023/12/22 04:28:01;;;;;;;0.90;0.10;;;8.00;99.90;;;;;;5054325;28;20224;-63
2023/12/22 04:30:28;;;;;;;0.70;0.00;;;8.00;99.90;;;;;;5052820;28;20227;-63
2023/12/22 04:32:56;;;;;;;2.37;0.30;;;8.00;99.90;;;;;;5040153;28;20200;-63
2023/12/22 04:35:23;;;;;;;0.10;0.10;;;7.90;99.90;;;;;;5043750;28;20203;-64
2023/12/22 04:37:50;;;;;;;1.30;0.20;;;7.90;99.90;;;;;;5053153;28;20710;-64
2023/12/22 04:40:19;;;;;;;0.60;0.13;;;7.90;99.90;;;;;;5052284;28;20199;-64
2023/12/22 04:42:46;;;;;;;0.10;0.10;;;7.90;99.90;;;;;;5043531;28;20247;-64
2023/12/22 04:45:13;;;;;;;0.30;0.20;;;7.90;99.90;;;;;;5049297;28;20269;-64
2023/12/22 04:47:40;;;;;;;0.53;0.20;;;7.90;99.90;;;;;;5052953;28;20270;-64
2023/12/22 04:50:07;;;;;;;0.10;0.10;;;7.90;99.90;;;;;;5052371;28;20273;-64
2023/12/22 04:52:34;;;;;;;3.00;0.20;;;7.90;99.90;;;;;;5036039;28;20624;-64
2023/12/22 04:55:01;;;;;;;1.70;0.20;;;8.00;99.90;;;;;;5041608;28;20199;-63
2023/12/22 04:57:30;;;;;;;1.60;0.10;;;8.00;99.90;;;;;;5023165;28;20228;-63
2023/12/22 04:59:57;;;;;;;0.10;0.10;;;7.80;99.90;;;;;;5031740;28;20197;-63
2023/12/22 05:02:23;;;;;;;0.00;0.00;;;7.70;99.90;;;;;;5032113;28;20225;-63
2023/12/22 05:04:51;;;;;;;2.43;0.13;;;7.60;99.90;;;;;;5032164;28;20258;-63
2023/12/22 05:07:18;;;;;;;0.10;0.10;;;7.50;99.90;;;;;;5031686;28;20239;-63
2023/12/22 05:09:45;;;;;;;0.40;0.20;;;7.30;99.90;;;;;;5030081;28;20641;-63
2023/12/22 05:12:12;;;;;;;0.53;0.20;;;7.30;99.90;;;;;;5031910;28;20714;-64
2023/12/22 05:14:40;;;;;;;4.43;0.40;;;7.20;99.90;;;;;;5020875;28;20207;-63
2023/12/22 05:17:07;;;;;;;0.87;0.20;;;7.20;99.90;;;;;;5032080;28;20219;-63
2023/12/22 05:19:34;;;;;;;1.07;0.27;;;7.20;99.90;;;;;;5031674;28;20262;-64
2023/12/22 05:22:01;;;;;;;2.00;0.30;;;7.20;99.90;;;;;;5031245;28;20629;-63
2023/12/22 05:24:28;;;;;;;1.23;0.43;;;7.30;99.90;;;;;;5031248;28;20258;-64
2023/12/22 05:26:56;;;;;;;4.47;0.57;;;7.30;99.90;;;;;;5031662;28;20629;-63
2023/12/22 05:29:23;;;;;;;0.60;0.30;;;7.40;99.90;;;;;;5031209;28;20224;-63
2023/12/22 05:31:51;;;;;;;2.30;0.50;;;7.40;99.90;;;;;;5031694;28;20857;-64
2023/12/22 05:34:18;;;;;;;2.73;0.30;;;7.50;99.90;;;;;;5026962;28;20213;-64
2023/12/22 05:36:45;;;;;;;3.10;0.70;;;7.60;99.90;;;;;;5031502;28;20221;-63
2023/12/22 05:39:12;;;;;;;2.67;0.40;;;7.60;99.90;;;;;;5031088;28;20197;-63
2023/12/22 05:41:39;;;;;;;2.00;0.40;;;7.60;99.90;;;;;;5023180;28;20587;-64
2023/12/22 05:44:06;;;;;;;2.63;0.37;;;7.70;99.90;;;;;;5030569;28;20684;-63
2023/12/22 05:46:37;;;;;;;3.20;0.40;;;7.60;99.90;;;;;;5031550;28;20256;-63
2023/12/22 05:49:06;;;;;;;1.80;0.80;;;7.70;99.90;;;;;;5025466;28;20244;-63
2023/12/22 05:51:38;;;;;;;4.47;0.43;;;7.90;99.90;;;;;;5035605;28;20253;-64
2023/12/22 05:54:06;;;;;;;2.10;0.43;;;7.80;99.90;;;;;;5044039;28;20232;-64
2023/12/22 05:56:33;;;;;;;5.23;0.60;;;7.80;99.90;;;;;;5035186;28;20234;-63
2023/12/22 05:59:00;;;;;;;7.43;1.07;;;7.90;99.90;;;;;;5034545;28;20283;-63
2023/12/22 06:01:27;;;;;;;3.93;0.47;;;7.80;99.90;;;;;;5033740;28;20744;-64
2023/12/22 06:03:54;;;;;;;1.27;0.43;;;7.80;99.90;;;;;;5036401;28;20204;-63
2023/12/22 06:06:23;;;;;;;2.33;0.37;;;7.80;99.90;;;;;;5035056;28;20237;-63
2023/12/22 06:08:50;;;;;;;9.13;0.70;;;7.80;99.90;;;;;;5035122;28;20299;-63
2023/12/22 06:11:17;;;;;;;2.87;0.53;;;7.80;99.90;;;;;;5035242;28;20664;-63
2023/12/22 06:13:44;;;;;;;3.20;0.67;;;7.70;99.90;;;;;;5032541;28;20205;-63
2023/12/22 06:16:15;;;;;;;3.70;0.70;;;7.70;99.90;;;;;;5035176;28;20664;-63
2023/12/22 06:18:42;;;;;;;1.47;0.60;;;7.70;99.90;;;;;;5027008;28;20234;-63
2023/12/22 06:21:10;;;;;;;4.23;0.50;;;7.60;99.90;;;;;;5035291;28;20207;-63
2023/12/22 06:23:38;;;;;;;6.53;1.90;;;7.60;99.90;;;;;;5034952;28;20668;-63
2023/12/22 06:26:10;;;;;;;3.73;0.67;;;7.70;99.90;;;;;;5034885;28;20270;-64
2023/12/22 06:28:38;;;;;;;4.23;0.50;;;7.70;99.90;;;;;;5034123;28;20280;-64
2023/12/22 06:31:05;;;;;;;2.77;0.87;;;7.60;99.90;;;;;;5032552;28;20228;-63
2023/12/22 06:33:31;;;;;;;2.60;0.40;;;7.70;99.90;;;;;;5034783;28;20266;-63
2023/12/22 06:35:58;;;;;;;5.97;0.63;;;7.70;99.90;;;;;;5034788;28;20192;-63
2023/12/22 06:38:25;;;;;;;4.70;0.97;;;7.70;99.90;;;;;;5034346;28;20278;-63
2023/12/22 06:40:53;;;;;;;6.17;0.83;;;7.70;99.90;;;;;;5033193;28;20650;-63
2023/12/22 06:43:20;;;;;;;5.97;1.13;;;7.80;99.90;;;;;;5032268;28;20212;-63
2023/12/22 06:45:47;;;;;;;1.50;0.53;;;7.70;99.90;;;;;;5033558;28;20254;-63
2023/12/22 06:48:14;;;;;;;1.60;0.77;;;7.70;99.90;;;;;;5034235;28;20595;-64
2023/12/22 06:50:44;;;;;;;6.10;1.47;;;7.70;99.90;;;;;;5026234;28;20222;-64
2023/12/22 06:53:11;;;;;;;2.67;0.60;;;7.70;99.90;;;;;;5034442;28;20291;-64
2023/12/22 06:55:38;;;;;;;2.97;0.47;;;8.40;99.90;;;;;;5034070;28;20205;-63
2023/12/22 06:58:06;;;;;;;3.97;0.60;;;7.80;99.90;;;;;;5033930;28;20225;-63
2023/12/22 07:00:33;;;;;;;3.20;0.60;;;7.70;99.90;;;;;;5033705;28;20250;-63
2023/12/22 07:03:00;;;;;;;3.00;0.63;;;7.70;99.90;;;;;;5032794;28;20278;-63
2023/12/22 07:05:36;;;;;;;3.07;0.40;;;7.80;99.90;;;;;;5034064;28;20256;-63
2023/12/22 07:08:05;;;;;;;5.60;1.00;;;7.90;99.90;;;;;;5032613;28;20597;-63
2023/12/22 07:10:31;;;;;;;4.63;0.60;;;7.80;99.90;;;;;;5033668;28;20316;-63
2023/12/22 07:12:58;;;;;;;2.37;0.67;;;7.90;99.90;;;;;;5033948;28;20279;-63
2023/12/22 07:15:28;;;;;;;2.30;0.50;;;7.90;99.90;;;;;;5033760;28;20204;-63
2023/12/22 07:17:55;;;;;;;3.30;0.70;;;;;;;;;;5033619;28;20270;-63
2023/12/22 07:20:22;;;;;;;4.90;0.80;;;7.70;99.90;;;;;;5033157;28;20207;-63
2023/12/22 07:22:50;;;;;;;4.10;0.50;;;7.90;99.90;;;;;;5032412;28;20204;-64
2023/12/22 07:25:19;;;;;;;4.83;1.03;;;7.90;99.90;;;;;;5037092;28;20211;-64
2023/12/22 07:27:46;;;;;;;2.67;0.70;;;7.90;99.90;;;;;;5033216;28;20870;-63
2023/12/22 07:30:16;;;;;;;4.87;0.40;;;7.90;99.90;;;;;;5033246;28;20763;-63
2023/12/22 07:32:47;;;;;;;4.07;1.07;;;8.10;99.90;;;;;;5029637;28;20729;-65
2023/12/22 07:35:14;;;;;;;1.50;0.90;;;8.60;99.90;;;;;;5035710;28;20250;-63
2023/12/22 07:37:42;;;;;;;3.63;0.83;;;8.10;99.90;;;;;;5029672;28;20251;-63
2023/12/22 07:40:10;;;;;;;6.87;0.80;;;8.10;99.90;;;;;;5032110;28;20257;-62
2023/12/22 07:42:38;;;;;;;2.60;0.70;;;8.10;99.90;;;;;;5033099;28;20204;-63
2023/12/22 07:45:07;;;;;;;3.83;0.73;;;8.00;99.90;;;;;;5029838;28;20591;-62
2023/12/22 07:47:36;;;;;;;8.63;1.13;;;8.00;99.90;;;;;;5033039;28;20256;-63
2023/12/22 07:50:08;;;;;;;7.40;1.47;;;8.00;99.90;;;;;;5032553;28;20308;-63
2023/12/22 07:52:37;;;;;;;4.53;0.70;;;8.00;99.90;;;;;;5030016;28;20203;-63
2023/12/22 07:55:06;;;;;;;4.63;0.70;;;8.10;99.90;;;;;;5033025;28;20291;-64
2023/12/22 07:57:33;;;;;;;7.37;0.97;;;8.10;99.90;;;;;;5026277;28;20285;-63
2023/12/22 08:00:00;;;;;;;4.80;0.57;;;8.10;99.90;;;;;;5029747;28;20270;-63
2023/12/22 08:02:28;;;;;;;7.30;0.93;;;8.00;99.90;;;;;;5032326;28;20215;-62
2023/12/22 08:04:55;;;;;;;6.40;1.00;;;8.10;99.90;;;;;;5031175;28;20308;-64
2023/12/22 08:07:23;;;;;;;6.30;0.90;;;8.10;99.90;;;;;;5029165;28;20227;-63
2023/12/22 08:09:50;;;;;;;3.40;1.10;;;8.10;99.90;;;;;;5031048;28;20711;-63
2023/12/22 08:12:17;;;;;;;6.07;1.03;;;8.00;99.90;;;;;;5027657;28;20200;-63
2023/12/22 08:14:44;;;;;;;7.30;0.80;;;8.10;99.90;;;;;;5031875;28;20287;-63
2023/12/22 08:17:13;;;;;;;7.07;0.90;;;8.10;99.90;;;;;;5028842;28;20723;-63
2023/12/22 08:19:42;;;;;;;5.67;0.80;;;8.00;99.90;;;;;;5033850;28;20197;-64
2023/12/22 08:22:09;;;;;;;2.50;0.67;;;8.00;99.90;;;;;;5041119;28;20200;-63
2023/12/22 08:24:39;;;;;;;7.07;0.77;;;8.10;99.90;;;;;;5043449;28;20201;-63
2023/12/22 08:27:06;;;;;;;5.83;0.77;;;8.00;99.90;;;;;;5046446;28;20955;-69
2023/12/22 08:29:33;;;;;;;8.93;0.70;;;8.10;99.90;;;;;;5040703;28;20237;-66
2023/12/22 08:32:00;;;;;;;4.07;0.50;;;8.10;99.90;;;;;;5033826;28;20200;-64
2023/12/22 08:34:27;;;;;;;5.40;1.47;;;8.30;99.90;;;;;;5015609;28;20220;-70
2023/12/22 08:36:54;;;;;;;3.60;0.57;;;8.20;99.90;;;;;;5050226;28;20273;-63
2023/12/22 08:39:21;;;;;;;4.37;1.23;;;8.20;99.90;;;;;;5035766;28;20201;-62
2023/12/22 08:41:53;;;;;;;2.27;0.50;;;8.10;99.90;;;;;;5043845;28;20254;-60
2023/12/22 08:44:20;;;;;;;2.70;0.60;;;8.10;99.90;;;;;;5029450;28;20698;-62
2023/12/22 08:46:47;;;;;;;5.10;1.10;;;8.10;99.90;;;;;;5043620;28;20287;-63
2023/12/22 08:49:14;;;;;;;7.90;1.10;;;8.10;99.90;;;;;;5040426;28;20356;-63
2023/12/22 08:51:41;;;;;;;0.80;0.57;;;8.10;99.90;;;;;;5042652;28;20221;-63
2023/12/22 08:54:08;;;;;;;3.43;0.60;;;8.00;99.90;;;;;;5032335;28;20676;-62
2023/12/22 08:56:36;;;;;;;2.13;0.50;;;8.10;99.90;;;;;;5032134;28;20724;-63
2023/12/22 08:59:04;;;;;;;2.80;0.50;;;8.30;99.90;;;;;;5031917;28;20743;-62
2023/12/22 09:01:31;;;;;;;3.47;0.80;;;8.10;99.90;;;;;;5032099;28;20205;-62
2023/12/22 09:03:58;;;;;;;1.50;0.40;;;8.00;99.90;;;;;;5040711;28;20256;-63
2023/12/22 09:06:25;;;;;;;6.77;1.17;;;8.10;99.90;;;;;;5051912;28;20232;-62
2023/12/22 09:08:52;;;;;;;2.53;0.83;;;8.00;99.90;;;;;;5051583;28;20296;-63
2023/12/22 09:11:21;;;;;;;2.57;0.70;;;7.90;99.90;;;;;;5052040;28;20223;-63
2023/12/22 09:13:48;;;;;;;3.27;0.50;;;7.90;99.90;;;;;;5051853;28;20208;-63
2023/12/22 09:16:22;;;;;;;1.23;0.20;;;7.90;99.90;;;;;;5051927;28;20634;-62
2023/12/22 09:18:49;;;;;;;5.83;0.50;;;7.90;99.90;;;;;;5050905;28;20613;-63
2023/12/22 09:21:17;;;;;;;4.93;0.37;;;7.90;99.90;;;;;;5052035;28;20214;-62
2023/12/22 09:23:46;;;;;;;7.20;0.57;;;8.00;99.90;;;;;;5051675;28;20210;-63
2023/12/22 09:26:13;;;;;;;2.93;0.43;;;7.90;99.90;;;;;;5051557;28;20740;-63
2023/12/22 09:28:40;;;;;;;3.30;0.40;;;7.90;99.90;;;;;;5051616;28;20204;-63
2023/12/22 09:31:08;;;;;;;1.97;0.40;;;7.80;99.90;;;;;;5050696;28;20215;-63
2023/12/22 09:33:36;;;;;;;1.10;0.40;;;7.80;99.90;;;;;;5051212;28;20203;-62
2023/12/22 09:36:04;;;;;;;3.00;0.30;;;7.80;99.90;;;;;;5051615;28;20267;-63
2023/12/22 09:38:31;;;;;;;1.30;0.40;;;7.80;99.90;;;;;;5051280;28;20212;-63
2023/12/22 09:40:59;;;;;;;1.83;0.53;;;7.80;99.90;;;;;;5051758;28;20658;-63
2023/12/22 09:43:26;;;;;;;5.57;0.53;;;7.80;99.90;;;;;;5051721;28;20239;-63
2023/12/22 09:45:54;;;;;;;1.43;0.37;;;7.90;99.90;;;;;;5051738;28;20211;-63
2023/12/22 09:48:27;;;;;;;0.97;0.60;;;7.90;99.90;;;;;;5050204;28;20220;-63
2023/12/22 09:50:56;;;;;;;1.60;0.30;;;7.90;99.90;;;;;;5051415;28;20222;-63
2023/12/22 09:53:24;;;;;;;2.47;0.40;;;7.80;99.90;;;;;;5050544;28;20258;-63
2023/12/22 09:55:51;;;;;;;1.07;0.40;;;7.80;99.90;;;;;;5051449;28;20204;-63
2023/12/22 09:58:18;;;;;;;5.20;0.43;;;7.80;99.90;;;;;;5050248;28;20285;-63
2023/12/22 10:00:46;;;;;;;3.50;0.90;;;7.90;99.90;;;;;;5051536;28;20204;-63
2023/12/22 10:03:14;;;;;;;2.20;0.50;;;7.60;99.90;;;;;;5047075;28;20199;-63
2023/12/22 10:05:43;;;;;;;3.80;0.50;;;8.00;99.90;;;;;;5049672;28;20195;-63
2023/12/22 10:08:12;;;;;;;3.40;0.47;;;8.00;99.90;;;;;;5050375;28;20231;-63
2023/12/22 10:10:40;;;;;;;1.27;0.23;;;8.00;99.90;;;;;;5051179;28;20788;-63
2023/12/22 10:13:09;;;;;;;1.37;0.50;;;8.00;99.90;;;;;;5051262;28;20299;-63
2023/12/22 10:15:40;;;;;;;6.70;0.83;;;7.90;99.90;;;;;;5051279;28;20206;-65
2023/12/22 10:18:08;;;;;;;1.73;0.27;;;7.90;99.90;;;;;;5050096;28;20269;-65
2023/12/22 10:20:36;;;;;;;2.63;0.20;;;7.90;99.90;;;;;;5051414;28;20208;-65
2023/12/22 10:23:03;;;;;;;0.73;0.43;;;7.90;99.90;;;;;;5051460;28;20629;-64
2023/12/22 10:25:32;;;;;;;1.60;0.30;;;7.90;99.90;;;;;;5050740;28;20208;-64
2023/12/22 10:27:59;;;;;;;1.90;0.20;;;8.00;99.90;;;;;;5050871;28;20224;-65
2023/12/22 10:30:28;;;;;;;1.87;0.53;;;7.90;99.90;;;;;;5051088;28;20293;-63
2023/12/22 10:32:55;;;;;;;0.57;0.10;;;7.90;99.90;;;;;;5051105;28;20204;-63
2023/12/22 10:35:22;;;;;;;2.40;0.10;;;7.90;99.90;;;;;;5043038;28;20193;-62
2023/12/22 10:37:52;;;;;;;0.73;0.20;;;7.90;99.90;;;;;;5055186;28;20224;-65
2023/12/22 10:40:19;;;;;;;0.97;0.50;;;8.00;99.90;;;;;;5054626;28;20204;-63
2023/12/22 10:42:49;;;;;;;0.60;0.20;;;8.00;99.90;;;;;;5054674;28;20207;-62
2023/12/22 10:45:17;;;;;;;0.77;0.20;;;8.00;99.90;;;;;;5054612;28;20200;-63
2023/12/22 10:47:44;;;;;;;2.03;0.40;;;7.90;99.90;;;;;;5053873;28;20269;-62
2023/12/22 10:50:13;;;;;;;2.37;0.23;;;8.00;99.90;;;;;;5053442;28;20204;-63
2023/12/22 10:52:40;;;;;;;2.20;0.30;;;8.00;99.90;;;;;;5054787;28;20287;-63
2023/12/22 10:55:08;;;;;;;2.67;0.50;;;8.00;99.90;;;;;;5054591;28;20204;-63
2023/12/22 10:57:37;;;;;;;3.47;0.50;;;8.00;99.90;;;;;;5054365;28;20869;-63
2023/12/22 11:00:08;;;;;;;1.10;0.40;;;8.00;99.90;;;;;;5053860;28;20582;-63
2023/12/22 11:02:36;;;;;;;1.67;0.23;;;8.00;99.90;;;;;;5054485;28;20219;-63
2023/12/22 11:05:06;;;;;;;4.13;0.50;;;8.10;99.90;;;;;;5052557;28;20283;-63
2023/12/22 11:07:34;;;;;;;2.93;0.30;;;7.70;99.90;;;;;;5054099;28;20257;-63
2023/12/22 11:10:04;;;;;;;0.60;0.13;;;8.20;99.90;;;;;;5053806;28;20291;-63
2023/12/22 11:12:34;;;;;;;4.67;0.80;;;8.10;99.90;;;;;;5044004;28;20235;-63
2023/12/22 11:15:03;;;;;;;1.30;0.30;;;8.20;99.90;;;;;;5041911;28;20200;-63
2023/12/22 11:17:33;;;;;;;1.70;0.30;;;8.20;99.90;;;;;;5044795;28;20661;-62
2023/12/22 11:20:00;;;;;;;2.33;0.30;;;8.20;99.90;;;;;;5052514;28;20676;-63
2023/12/22 11:22:28;;;;;;;1.60;0.53;;;8.20;99.90;;;;;;5054566;28;20200;-63
2023/12/22 11:24:56;;;;;;;3.00;0.20;;;8.20;99.90;;;;;;5044378;28;20667;-63
2023/12/22 11:27:26;;;;;;;2.50;0.73;;;8.10;99.90;;;;;;5042037;28;20242;-61
2023/12/22 11:29:53;;;;;;;2.80;0.80;;;8.20;99.90;;;;;;5033534;28;20672;-66
2023/12/22 11:32:21;;;;;;;4.07;0.40;;;8.20;99.90;;;;;;5040656;28;20247;-66
2023/12/22 11:34:49;;;;;;;0.30;0.20;;;8.20;99.90;;;;;;5051833;28;20230;-66
2023/12/22 11:37:17;;;;;;;2.27;0.30;;;8.10;99.90;;;;;;5044677;28;20278;-66
2023/12/22 11:39:45;;;;;;;2.07;0.20;;;8.10;99.90;;;;;;5044524;28;20203;-66
2023/12/22 11:42:17;;;;;;;1.93;0.20;;;8.10;99.90;;;;;;5053851;28;20207;-66
2023/12/22 11:44:44;;;;;;;0.77;0.23;;;8.10;99.90;;;;;;5054918;28;20229;-65
2023/12/22 11:47:13;;;;;;;2.73;0.77;;;8.10;99.90;;;;;;5052561;28;20227;-66
2023/12/22 11:49:40;;;;;;;0.70;0.10;;;8.10;99.90;;;;;;5047059;28;20243;-65
2023/12/22 11:52:18;;;;;;;1.60;0.20;;;8.10;99.90;;;;;;5044133;28;20217;-66
2023/12/22 11:54:46;;;;;;;0.47;0.20;;;8.00;99.90;;;;;;5057839;28;20323;-66
2023/12/22 11:57:34;;;;;;;3.67;0.33;;;8.10;99.90;;;;;;5055999;28;20758;-65
2023/12/22 12:00:05;;;;;;;0.20;0.20;;;8.20;99.90;;;;;;5057996;28;20203;-66
2023/12/22 12:02:34;;;;;;;1.00;0.30;;;8.10;99.90;;;;;;5045831;28;20205;-66
2023/12/22 12:05:01;;;;;;;1.63;0.10;;;8.10;99.90;;;;;;5050328;28;20199;-66
2023/12/22 12:07:50;;;;;;;2.20;0.20;;;8.10;99.90;;;;;;5058012;28;20334;-65
2023/12/22 12:10:52;;;;;;;0.10;0.10;;;8.20;99.90;;;;;;5054937;28;20761;-66
2023/12/22 12:13:25;;;;;;;0.30;0.20;;;8.20;99.90;;;;;;5048507;28;20208;-68
2023/12/22 12:15:52;;;;;;;0.87;0.10;;;8.20;99.90;;;;;;5038514;28;20238;-65
2023/12/22 12:18:23;;;;;;;0.63;0.53;;;8.20;99.90;;;;;;5030938;28;20296;-65
2023/12/22 12:20:51;;;;;;;0.20;0.10;;;8.10;99.90;;;;;;5030892;28;20647;-66
2023/12/22 12:23:19;;;;;;;3.10;0.10;;;8.10;99.90;;;;;;5030742;28;20729;-65
2023/12/22 12:25:49;;;;;;;1.47;0.40;;;8.10;99.90;;;;;;5029139;28;20213;-66
2023/12/22 12:28:17;;;;;;;0.10;0.10;;;8.00;99.90;;;;;;5032981;28;20255;-65
2023/12/22 12:30:46;;;;;;;0.10;0.00;;;7.90;99.90;;;;;;5029363;28;20201;-66
2023/12/22 12:33:14;;;;;;;0.60;0.40;;;7.80;99.90;;;;;;5029436;28;20227;-65
2023/12/22 12:35:43;;;;;;;1.00;0.43;;;;;;;;;;5030027;28;20263;-67
2023/12/22 12:38:11;;;;;;;0.30;0.20;;;7.60;99.90;;;;;;5028793;28;20224;-65
2023/12/22 12:40:41;;;;;;;0.33;0.30;;;7.60;99.90;;;;;;5030433;28;20323;-65
2023/12/22 12:43:09;;;;;;;1.60;0.20;;;7.50;99.90;;;;;;5031160;28;20197;-65
2023/12/22 12:45:37;;;;;;;0.10;0.10;;;7.40;99.90;;;;;;5031271;28;20252;-66
2023/12/22 12:48:05;;;;;;;0.23;0.10;;;7.40;99.90;;;;;;5031849;28;20311;-65
2023/12/22 12:50:32;;;;;;;2.27;0.10;;;7.40;99.90;;;;;;5032154;28;20200;-65
2023/12/22 12:53:00;;;;;;;2.10;0.27;;;7.40;99.90;;;;;;5037469;28;20224;-66
2023/12/22 12:55:27;;;;;;;0.53;0.10;;;6.90;99.90;;;;;;5033644;28;20201;-65
2023/12/22 12:57:57;;;;;;;0.30;0.10;;;7.40;99.90;;;;;;5031305;28;20218;-65
2023/12/22 13:00:27;;;;;;;0.30;0.10;;;7.40;99.90;;;;;;5031575;28;20259;-65
2023/12/22 13:02:56;;;;;;;2.00;0.10;;;7.40;99.90;;;;;;5028339;28;20196;-66